PWSweather.com
Personal Weather Stations
Station Observations
KNYSYRAC2
Fairmount Hills, Fairmount, NY 13219

Fairmount HillsFairmount, NY 13219

Lat: 43.03602, Lon: -76.247151

Elevation: 663

Station Type: Ambient Weather WS-2080

http://weather.cerchia.com

High Low Average
Temperature 66.5°F19.2°F 31.5°F-0.3°F 51.0°F10.6°F
Dew Point 55.4°F13.0°F 20.1°F-6.6°F 43.8°F6.6°F
Winds 13.0 mph NW20.9 mph NW Calm Calm 5.8 mph 9.3 mph
Wind Gusts 33.3 mph53.6 mph -- 16.8 mph27.0 mph
Humidity 100% 57% 77%
Pressure 29.75 in1007.50 in 29.41 in995.90 in -
Precipitation 3.02 in76.70 in - -
Hour Temp Dew Point Humidity Winds Wind Gusts Pressure Precip Precip Rate Daily Precip Total
12:00 AM 62.5°F16.9°C 51.4°F10.8°C 67% 7.4 mph S11.9 kmh S 21.8 mph35.1 kmh 29.63 in1003.4 mb 0.00 in0.0 mm 0.00 in0.0 mm 0.00 in0.0 mm
12:15 AM 62.3°F16.8°C 51.6°F10.9°C 68% 6.8 mph SE10.9 kmh SE 18.2 mph29.3 kmh 29.62 in1003.0 mb 0.00 in0.0 mm 0.00 in0.0 mm 0.00 in0.0 mm
12:30 AM 62.1°F16.7°C 51.4°F10.8°C 68% 7.1 mph SSE11.4 kmh SSE 18.2 mph29.3 kmh 29.62 in1003.0 mb 0.00 in0.0 mm 0.00 in0.0 mm 0.00 in0.0 mm
12:45 AM 62.0°F16.7°C 51.3°F10.7°C 68% 6.6 mph SSE10.6 kmh SSE 24.6 mph39.6 kmh 29.62 in1003.0 mb 0.00 in0.0 mm 0.00 in0.0 mm 0.00 in0.0 mm
01:00 AM 62.0°F16.7°C 51.3°F10.7°C 68% 5.7 mph S9.2 kmh S 18.2 mph29.3 kmh 29.61 in1002.7 mb 0.00 in0.0 mm 0.00 in0.0 mm 0.00 in0.0 mm
01:15 AM 62.0°F16.7°C 51.3°F10.7°C 68% 7.9 mph SSE12.7 kmh SSE 21.8 mph35.1 kmh 29.61 in1002.7 mb 0.00 in0.0 mm 0.00 in0.0 mm 0.00 in0.0 mm
01:30 AM 61.8°F16.6°C 51.5°F10.8°C 69% 6.6 mph S10.6 kmh S 16.2 mph26.1 kmh 29.60 in1002.4 mb 0.00 in0.0 mm 0.00 in0.0 mm 0.00 in0.0 mm
01:45 AM 61.4°F16.3°C 51.5°F10.8°C 70% 5.3 mph SE8.5 kmh SE 15.1 mph24.3 kmh 29.60 in1002.4 mb 0.00 in0.0 mm 0.00 in0.0 mm 0.00 in0.0 mm
02:00 AM 61.4°F16.3°C 51.9°F11.1°C 71% 7.9 mph S12.7 kmh S 21.0 mph33.8 kmh 29.60 in1002.4 mb 0.00 in0.0 mm 0.00 in0.0 mm 0.00 in0.0 mm
02:15 AM 61.1°F16.2°C 51.6°F10.9°C 71% 6.3 mph SSE10.1 kmh SSE 19.9 mph32.0 kmh 29.59 in1002.0 mb 0.00 in0.0 mm 0.00 in0.0 mm 0.00 in0.0 mm
02:30 AM 61.1°F16.2°C 52.0°F11.1°C 72% 5.1 mph S8.2 kmh S 13.4 mph21.6 kmh 29.59 in1002.0 mb 0.00 in0.0 mm 0.00 in0.0 mm 0.00 in0.0 mm
02:45 AM 61.1°F16.2°C 52.0°F11.1°C 72% 6.0 mph SSE9.7 kmh SSE 21.8 mph35.1 kmh 29.59 in1002.0 mb 0.00 in0.0 mm 0.00 in0.0 mm 0.00 in0.0 mm
03:00 AM 61.1°F16.2°C 52.3°F11.3°C 73% 6.0 mph SE9.7 kmh SE 15.1 mph24.3 kmh 29.58 in1001.7 mb 0.00 in0.0 mm 0.00 in0.0 mm 0.00 in0.0 mm
03:15 AM 61.1°F16.2°C 52.3°F11.3°C 73% 5.2 mph SSE8.4 kmh SSE 21.0 mph33.8 kmh 29.57 in1001.4 mb 0.00 in0.0 mm 0.00 in0.0 mm 0.00 in0.0 mm
03:30 AM 60.9°F16.1°C 52.5°F11.4°C 74% 7.2 mph SE11.6 kmh SE 19.9 mph32.0 kmh 29.57 in1001.4 mb 0.00 in0.0 mm 0.00 in0.0 mm 0.00 in0.0 mm
03:45 AM 60.7°F15.9°C 52.4°F11.3°C 74% 6.9 mph S11.1 kmh S 18.2 mph29.3 kmh 29.57 in1001.4 mb 0.00 in0.0 mm 0.00 in0.0 mm 0.00 in0.0 mm
04:00 AM 60.5°F15.8°C 52.6°F11.4°C 75% 6.2 mph S10.0 kmh S 14.3 mph23.0 kmh 29.57 in1001.4 mb 0.00 in0.0 mm 0.00 in0.0 mm 0.00 in0.0 mm
04:15 AM 60.3°F15.7°C 52.4°F11.3°C 75% 6.6 mph S10.6 kmh S 23.8 mph38.3 kmh 29.57 in1001.4 mb 0.00 in0.0 mm 0.00 in0.0 mm 0.00 in0.0 mm
04:30 AM 60.5°F15.8°C 52.6°F11.4°C 75% 6.6 mph S10.6 kmh S 16.2 mph26.1 kmh 29.56 in1001.0 mb 0.00 in0.0 mm 0.00 in0.0 mm 0.00 in0.0 mm
04:45 AM 60.7°F15.9°C 53.1°F11.7°C 76% 6.4 mph SSE10.3 kmh SSE 18.2 mph29.3 kmh 29.56 in1001.0 mb 0.00 in0.0 mm 0.00 in0.0 mm 0.00 in0.0 mm
05:00 AM 61.1°F16.2°C 53.4°F11.9°C 76% 7.2 mph SSE11.6 kmh SSE 13.4 mph21.6 kmh 29.55 in1000.7 mb 0.00 in0.0 mm 0.00 in0.0 mm 0.00 in0.0 mm
05:15 AM 61.1°F16.2°C 53.4°F11.9°C 76% 5.7 mph SSE9.2 kmh SSE 15.1 mph24.3 kmh 29.55 in1000.7 mb 0.00 in0.0 mm 0.00 in0.0 mm 0.00 in0.0 mm
05:30 AM 61.1°F16.2°C 53.4°F11.9°C 76% 7.4 mph S11.9 kmh S 17.1 mph27.5 kmh 29.55 in1000.7 mb 0.00 in0.0 mm 0.00 in0.0 mm 0.00 in0.0 mm
05:45 AM 61.2°F16.2°C 53.6°F12.0°C 76% 6.0 mph S9.7 kmh S 24.6 mph39.6 kmh 29.55 in1000.7 mb 0.00 in0.0 mm 0.00 in0.0 mm 0.00 in0.0 mm
06:00 AM 61.2°F16.2°C 53.6°F12.0°C 76% 4.8 mph S7.7 kmh S 19.9 mph32.0 kmh 29.55 in1000.7 mb 0.00 in0.0 mm 0.00 in0.0 mm 0.00 in0.0 mm
06:15 AM 61.1°F16.2°C 53.4°F11.9°C 76% 4.0 mph S6.4 kmh S 8.7 mph14.0 kmh 29.55 in1000.7 mb 0.00 in0.0 mm 0.00 in0.0 mm 0.00 in0.0 mm
06:30 AM 60.9°F16.1°C 53.6°F12.0°C 77% 3.5 mph SE5.6 kmh SE 14.3 mph23.0 kmh 29.56 in1001.0 mb 0.00 in0.0 mm 0.00 in0.0 mm 0.00 in0.0 mm
06:45 AM 61.1°F16.2°C 53.8°F12.1°C 77% 3.1 mph S5.0 kmh S 13.4 mph21.6 kmh 29.55 in1000.7 mb 0.00 in0.0 mm 0.00 in0.0 mm 0.00 in0.0 mm
07:00 AM 61.1°F16.2°C 53.8°F12.1°C 77% 2.2 mph SW3.5 kmh SW 9.5 mph15.3 kmh 29.56 in1001.0 mb 0.00 in0.0 mm 0.00 in0.0 mm 0.00 in0.0 mm
07:15 AM 61.2°F16.2°C 54.0°F12.2°C 77% 1.7 mph S2.7 kmh S 11.5 mph18.5 kmh 29.55 in1000.7 mb 0.00 in0.0 mm 0.00 in0.0 mm 0.00 in0.0 mm
07:30 AM 61.4°F16.3°C 54.1°F12.3°C 77% 1.8 mph SSW2.9 kmh SSW 6.7 mph10.8 kmh 29.56 in1001.0 mb 0.00 in0.0 mm 0.00 in0.0 mm 0.00 in0.0 mm
07:45 AM 61.4°F16.3°C 54.1°F12.3°C 77% 1.5 mph S2.4 kmh S 5.6 mph9.0 kmh 29.55 in1000.7 mb 0.00 in0.0 mm 0.00 in0.0 mm 0.00 in0.0 mm
08:00 AM 62.1°F16.7°C 54.1°F12.3°C 75% 3.6 mph SSE5.8 kmh SSE 9.5 mph15.3 kmh 29.54 in1000.3 mb 0.00 in0.0 mm 0.00 in0.0 mm 0.00 in0.0 mm
08:15 AM 62.3°F16.8°C 53.9°F12.2°C 74% 2.7 mph SE4.3 kmh SE 10.3 mph16.6 kmh 29.54 in1000.3 mb 0.00 in0.0 mm 0.00 in0.0 mm 0.00 in0.0 mm
08:30 AM 63.9°F17.7°C 55.1°F12.8°C 73% 3.0 mph S4.8 kmh S 8.7 mph14.0 kmh 29.52 in999.7 mb 0.00 in0.0 mm 0.00 in0.0 mm 0.00 in0.0 mm
08:45 AM 64.7°F18.2°C 55.0°F12.8°C 71% 5.3 mph S8.5 kmh S 13.4 mph21.6 kmh 29.52 in999.7 mb 0.00 in0.0 mm 0.00 in0.0 mm 0.00 in0.0 mm
09:00 AM 64.7°F18.2°C 55.0°F12.8°C 71% 4.3 mph S6.9 kmh S 10.3 mph16.6 kmh 29.51 in999.3 mb 0.00 in0.0 mm 0.00 in0.0 mm 0.00 in0.0 mm
09:15 AM 64.7°F18.2°C 55.0°F12.8°C 71% 4.4 mph SSE7.1 kmh SSE 14.3 mph23.0 kmh 29.51 in999.3 mb 0.00 in0.0 mm 0.00 in0.0 mm 0.00 in0.0 mm
09:30 AM 65.0°F18.3°C 55.4°F13.0°C 71% 5.2 mph SE8.4 kmh SE 16.2 mph26.1 kmh 29.50 in999.0 mb 0.00 in0.0 mm 0.00 in0.0 mm 0.00 in0.0 mm
09:45 AM 65.0°F18.3°C 55.4°F13.0°C 71% 2.5 mph SE4.0 kmh SE 10.3 mph16.6 kmh 29.49 in998.6 mb 0.00 in0.0 mm 0.00 in0.0 mm 0.00 in0.0 mm
10:00 AM 65.6°F18.7°C 55.1°F12.8°C 69% 8.1 mph WSW13.0 kmh WSW 17.1 mph27.5 kmh 29.48 in998.3 mb 0.00 in0.0 mm 0.00 in0.0 mm 0.00 in0.0 mm
10:15 AM 66.1°F18.9°C 55.2°F12.9°C 68% 4.8 mph S7.7 kmh S 10.3 mph16.6 kmh 29.48 in998.3 mb 0.00 in0.0 mm 0.00 in0.0 mm 0.00 in0.0 mm
10:30 AM 65.7°F18.7°C 54.9°F12.7°C 68% 8.1 mph S13.0 kmh S 14.3 mph23.0 kmh 29.47 in998.0 mb 0.00 in0.0 mm 0.00 in0.0 mm 0.00 in0.0 mm
10:45 AM 65.9°F18.8°C 55.1°F12.8°C 68% 5.7 mph SSE9.2 kmh SSE 13.4 mph21.6 kmh 29.46 in997.6 mb 0.00 in0.0 mm 0.00 in0.0 mm 0.00 in0.0 mm
11:00 AM 66.5°F19.2°C 55.2°F12.9°C 67% 4.4 mph S7.1 kmh S 16.2 mph26.1 kmh 29.44 in997.0 mb 0.00 in0.0 mm 0.00 in0.0 mm 0.00 in0.0 mm
11:15 AM 66.5°F19.2°C 54.8°F12.7°C 66% 6.4 mph SE10.3 kmh SE 18.2 mph29.3 kmh 29.43 in996.6 mb 0.00 in0.0 mm 0.00 in0.0 mm 0.00 in0.0 mm
11:30 AM 66.3°F19.1°C 54.6°F12.6°C 66% 8.4 mph SSW13.5 kmh SSW 21.8 mph35.1 kmh 29.41 in995.9 mb 0.00 in0.0 mm 0.00 in0.0 mm 0.00 in0.0 mm
11:45 AM 65.9°F18.8°C 54.2°F12.3°C 66% 8.5 mph SE13.7 kmh SE 18.2 mph29.3 kmh 29.41 in995.9 mb 0.00 in0.0 mm 0.00 in0.0 mm 0.00 in0.0 mm
12:00 PM 64.7°F18.2°C 54.6°F12.6°C 70% 6.7 mph S10.8 kmh S 21.8 mph35.1 kmh 29.45 in997.3 mb 0.01 in0.3 mm 0.01 in0.3 mm 0.01 in0.3 mm
12:15 PM 60.9°F16.1°C 54.7°F12.6°C 80% 7.6 mph S12.2 kmh S 21.0 mph33.8 kmh 29.44 in997.0 mb 0.08 in2.0 mm 0.28 in7.1 mm 0.08 in2.0 mm
12:30 PM 58.9°F14.9°C 53.7°F12.1°C 83% 6.1 mph S9.8 kmh S 19.9 mph32.0 kmh 29.43 in996.6 mb 0.11 in2.8 mm 0.12 in3.0 mm 0.11 in2.8 mm
12:45 PM 57.5°F14.2°C 53.0°F11.7°C 85% 9.8 mph S15.8 kmh S 23.8 mph38.3 kmh 29.44 in997.0 mb 0.13 in3.3 mm 0.08 in2.0 mm 0.13 in3.3 mm
01:00 PM 55.8°F13.2°C 52.0°F11.1°C 87% 11.5 mph NNW18.5 kmh NNW 26.6 mph42.8 kmh 29.48 in998.3 mb 0.19 in4.8 mm 0.08 in2.0 mm 0.20 in5.1 mm
01:15 PM 47.7°F8.7°C 44.4°F6.9°C 88% 6.6 mph NW10.6 kmh NW 15.1 mph24.3 kmh 29.46 in997.6 mb 0.19 in4.8 mm 0.00 in0.0 mm 0.27 in6.9 mm
01:30 PM 44.1°F6.7°C 41.4°F5.2°C 90% 13.0 mph NW20.9 kmh NW 32.4 mph52.1 kmh 29.49 in998.6 mb 0.21 in5.3 mm 0.08 in2.0 mm 0.32 in8.1 mm
01:45 PM 41.8°F5.4°C 39.6°F4.2°C 92% 8.6 mph NNW13.8 kmh NNW 24.6 mph39.6 kmh 29.49 in998.6 mb 0.25 in6.4 mm 0.16 in4.1 mm 0.38 in9.7 mm
02:00 PM 41.3°F5.2°C 39.9°F4.4°C 95% 5.2 mph NW8.4 kmh NW 17.1 mph27.5 kmh 29.51 in999.3 mb 0.19 in4.8 mm 0.00 in0.0 mm 0.39 in9.9 mm
02:15 PM 41.3°F5.2°C 40.5°F4.7°C 97% 5.6 mph NW9.0 kmh NW 16.2 mph26.1 kmh 29.52 in999.7 mb 0.14 in3.6 mm 0.00 in0.0 mm 0.41 in10.4 mm
02:30 PM 40.9°F4.9°C 40.1°F4.5°C 97% 3.0 mph NW4.8 kmh NW 10.3 mph16.6 kmh 29.54 in1000.3 mb 0.12 in3.0 mm 0.00 in0.0 mm 0.44 in11.2 mm
02:45 PM 40.5°F4.7°C 39.8°F4.3°C 97% 5.5 mph NNW8.9 kmh NNW 18.2 mph29.3 kmh 29.53 in1000.0 mb 0.08 in2.0 mm 0.00 in0.0 mm 0.46 in11.7 mm
03:00 PM 40.5°F4.7°C 40.0°F4.4°C 98% 5.8 mph N9.3 kmh N 14.3 mph23.0 kmh 29.55 in1000.7 mb 0.08 in2.0 mm 0.00 in0.0 mm 0.47 in11.9 mm
03:15 PM 40.4°F4.7°C 39.8°F4.3°C 98% 6.1 mph NNW9.8 kmh NNW 17.1 mph27.5 kmh 29.54 in1000.3 mb 0.08 in2.0 mm 0.00 in0.0 mm 0.50 in12.7 mm
03:30 PM 40.0°F4.4°C 39.5°F4.2°C 98% 3.3 mph NW5.3 kmh NW 10.3 mph16.6 kmh 29.56 in1001.0 mb 0.08 in2.0 mm 0.00 in0.0 mm 0.52 in13.2 mm
03:45 PM 39.3°F4.1°C 39.0°F3.9°C 99% 6.5 mph NNW10.5 kmh NNW 14.3 mph23.0 kmh 29.56 in1001.0 mb 0.09 in2.3 mm 0.04 in1.0 mm 0.56 in14.2 mm
04:00 PM 38.6°F3.7°C 38.0°F3.3°C 98% 4.1 mph WNW6.6 kmh WNW 12.3 mph19.8 kmh 29.60 in1002.4 mb 0.11 in2.8 mm 0.03 in0.8 mm 0.58 in14.7 mm
04:15 PM 37.8°F3.2°C 37.3°F2.9°C 98% 6.0 mph NW9.7 kmh NW 15.1 mph24.3 kmh 29.57 in1001.4 mb 0.11 in2.8 mm 0.00 in0.0 mm 0.60 in15.2 mm
04:30 PM 36.8°F2.7°C 36.2°F2.3°C 98% 6.6 mph NW10.6 kmh NW 17.1 mph27.5 kmh 29.56 in1001.0 mb 0.13 in3.3 mm 0.08 in2.0 mm 0.65 in16.5 mm
04:45 PM 36.4°F2.4°C 35.9°F2.2°C 98% 3.1 mph NW5.0 kmh NW 10.3 mph16.6 kmh 29.56 in1001.0 mb 0.11 in2.8 mm 0.00 in0.0 mm 0.66 in16.8 mm
05:00 PM 36.4°F2.4°C 36.1°F2.3°C 99% 1.5 mph W2.4 kmh W 4.8 mph7.7 kmh 29.58 in1001.7 mb 0.09 in2.3 mm 0.00 in0.0 mm 0.67 in17.0 mm
05:15 PM 36.4°F2.4°C 36.4°F2.4°C 100% 3.0 mph NW4.8 kmh NW 7.5 mph12.1 kmh 29.58 in1001.7 mb 0.08 in2.0 mm 0.00 in0.0 mm 0.69 in17.5 mm
05:30 PM 36.4°F2.4°C 36.4°F2.4°C 100% 2.8 mph W4.5 kmh W 8.7 mph14.0 kmh 29.61 in1002.7 mb 0.06 in1.5 mm 0.00 in0.0 mm 0.71 in18.0 mm
05:45 PM 36.6°F2.6°C 36.6°F2.6°C 100% 3.7 mph NW6.0 kmh NW 11.5 mph18.5 kmh 29.60 in1002.4 mb 0.06 in1.5 mm 0.00 in0.0 mm 0.72 in18.3 mm
06:00 PM 36.4°F2.4°C 35.9°F2.2°C 98% 8.7 mph NW14.0 kmh NW 22.9 mph36.9 kmh 29.64 in1003.7 mb 0.07 in1.8 mm 0.01 in0.3 mm 0.74 in18.8 mm
06:15 PM 35.9°F2.2°C 34.0°F1.1°C 93% 4.4 mph W7.1 kmh W 10.3 mph16.6 kmh 29.65 in1004.1 mb 0.07 in1.8 mm 0.00 in0.0 mm 0.76 in19.3 mm
06:30 PM 35.9°F2.2°C 33.8°F1.0°C 92% 4.9 mph SW7.9 kmh SW 18.2 mph29.3 kmh 29.64 in1003.7 mb 0.05 in1.3 mm 0.00 in0.0 mm 0.76 in19.3 mm
06:45 PM 36.4°F2.4°C 34.6°F1.4°C 93% 6.7 mph WSW10.8 kmh WSW 17.1 mph27.5 kmh 29.65 in1004.1 mb 0.04 in1.0 mm 0.00 in0.0 mm 0.76 in19.3 mm
07:00 PM 36.8°F2.7°C 33.3°F0.7°C 87% 7.2 mph W11.6 kmh W 19.0 mph30.6 kmh 29.65 in1004.1 mb 0.01 in0.3 mm 0.00 in0.0 mm 0.76 in19.3 mm
07:15 PM 36.8°F2.7°C 30.9°F-0.6°C 79% 6.8 mph W10.9 kmh W 21.8 mph35.1 kmh 29.67 in1004.7 mb 0.00 in0.0 mm 0.00 in0.0 mm 0.76 in19.3 mm
07:30 PM 36.9°F2.7°C 29.8°F-1.2°C 75% 6.6 mph WNW10.6 kmh WNW 19.0 mph30.6 kmh 29.66 in1004.4 mb 0.00 in0.0 mm 0.00 in0.0 mm 0.76 in19.3 mm
07:45 PM 36.6°F2.6°C 29.1°F-1.6°C 74% 5.2 mph NW8.4 kmh NW 13.4 mph21.6 kmh 29.67 in1004.7 mb 0.00 in0.0 mm 0.00 in0.0 mm 0.76 in19.3 mm
08:00 PM 36.6°F2.6°C 28.4°F-2.0°C 72% 5.7 mph WNW9.2 kmh WNW 18.2 mph29.3 kmh 29.68 in1005.1 mb 0.00 in0.0 mm 0.00 in0.0 mm 0.76 in19.3 mm
08:15 PM 36.8°F2.7°C 27.9°F-2.3°C 70% 5.7 mph WNW9.2 kmh WNW 21.8 mph35.1 kmh 29.67 in1004.7 mb 0.00 in0.0 mm 0.00 in0.0 mm 0.76 in19.3 mm
08:30 PM 36.6°F2.6°C 27.0°F-2.8°C 68% 6.7 mph NW10.8 kmh NW 19.9 mph32.0 kmh 29.68 in1005.1 mb 0.00 in0.0 mm 0.00 in0.0 mm 0.76 in19.3 mm
08:45 PM 36.4°F2.4°C 26.5°F-3.1°C 67% 8.0 mph WNW12.9 kmh WNW 26.6 mph42.8 kmh 29.69 in1005.4 mb 0.00 in0.0 mm 0.00 in0.0 mm 0.76 in19.3 mm
09:00 PM 36.2°F2.3°C 25.2°F-3.8°C 64% 6.6 mph WNW10.6 kmh WNW 21.0 mph33.8 kmh 29.69 in1005.4 mb 0.00 in0.0 mm 0.00 in0.0 mm 0.76 in19.3 mm
09:15 PM 35.9°F2.2°C 24.5°F-4.2°C 63% 6.1 mph WNW9.8 kmh WNW 18.2 mph29.3 kmh 29.70 in1005.8 mb 0.00 in0.0 mm 0.00 in0.0 mm 0.76 in19.3 mm
09:30 PM 35.7°F2.1°C 22.7°F-5.2°C 59% 8.6 mph NW13.8 kmh NW 27.7 mph44.6 kmh 29.71 in1006.1 mb 0.00 in0.0 mm 0.00 in0.0 mm 0.76 in19.3 mm
09:45 PM 34.8°F1.6°C 22.7°F-5.2°C 61% 9.2 mph W14.8 kmh W 21.8 mph35.1 kmh 29.71 in1006.1 mb 0.00 in0.0 mm 0.00 in0.0 mm 0.76 in19.3 mm
10:00 PM 34.1°F1.2°C 23.1°F-4.9°C 64% 7.6 mph W12.2 kmh W 19.9 mph32.0 kmh 29.72 in1006.4 mb 0.00 in0.0 mm 0.00 in0.0 mm 0.76 in19.3 mm
10:15 PM 33.9°F1.1°C 22.2°F-5.4°C 62% 6.9 mph NW11.1 kmh NW 21.0 mph33.8 kmh 29.72 in1006.4 mb 0.00 in0.0 mm 0.00 in0.0 mm 0.76 in19.3 mm
10:30 PM 33.9°F1.1°C 20.6°F-6.3°C 58% 7.6 mph NW12.2 kmh NW 21.8 mph35.1 kmh 29.72 in1006.4 mb 0.00 in0.0 mm 0.00 in0.0 mm 0.76 in19.3 mm
10:45 PM 33.9°F1.1°C 20.2°F-6.6°C 57% 6.8 mph WNW10.9 kmh WNW 18.2 mph29.3 kmh 29.72 in1006.4 mb 0.00 in0.0 mm 0.00 in0.0 mm 0.76 in19.3 mm
11:00 PM 33.7°F0.9°C 20.1°F-6.6°C 57% 4.8 mph NW7.7 kmh NW 14.3 mph23.0 kmh 29.73 in1006.8 mb 0.00 in0.0 mm 0.00 in0.0 mm 0.76 in19.3 mm
11:15 PM 33.5°F0.8°C 21.1°F-6.1°C 60% 9.1 mph NW14.6 kmh NW 33.3 mph53.6 kmh 29.74 in1007.1 mb 0.00 in0.0 mm 0.00 in0.0 mm 0.76 in19.3 mm
11:30 PM 31.7°F-0.2°C 23.7°F-4.6°C 72% 4.9 mph WNW7.9 kmh WNW 21.0 mph33.8 kmh 29.74 in1007.1 mb 0.00 in0.0 mm 0.00 in0.0 mm 0.76 in19.3 mm
11:45 PM 31.5°F-0.3°C 22.9°F-5.1°C 70% Calm Calm -- 29.75 in1007.5 mb 0.00 in0.0 mm 0.00 in0.0 mm 0.76 in19.3 mm